sensor_id;sensor_type;location;lat;lon;timestamp;pressure;altitude;pressure_sealevel;temperature;humidity
46456;BME280;64052;47.466;9.094;2023-02-20T00:02:25;96886.41;;;10.83;53.87
46456;BME280;64052;47.466;9.094;2023-02-20T00:07:27;96883.59;;;10.74;54.29
46456;BME280;64052;47.466;9.094;2023-02-20T00:12:28;96882.13;;;10.70;54.54
46456;BME280;64052;47.466;9.094;2023-02-20T00:17:30;96886.31;;;10.72;54.43
46456;BME280;64052;47.466;9.094;2023-02-20T00:22:32;96887.81;;;10.50;54.85
46456;BME280;64052;47.466;9.094;2023-02-20T00:27:33;96898.66;;;10.59;54.75
46456;BME280;64052;47.466;9.094;2023-02-20T00:32:35;96893.38;;;10.59;54.80
46456;BME280;64052;47.466;9.094;2023-02-20T00:37:36;96896.03;;;10.59;54.02
46456;BME280;64052;47.466;9.094;2023-02-20T00:42:38;96896.56;;;10.64;53.88
46456;BME280;64052;47.466;9.094;2023-02-20T00:47:40;96900.78;;;10.66;53.65
46456;BME280;64052;47.466;9.094;2023-02-20T00:52:41;96905.09;;;10.67;53.32
46456;BME280;64052;47.466;9.094;2023-02-20T00:57:44;96904.50;;;10.64;53.23
46456;BME280;64052;47.466;9.094;2023-02-20T01:02:48;96911.13;;;10.57;54.67
46456;BME280;64052;47.466;9.094;2023-02-20T01:07:49;96911.72;;;10.47;55.41
46456;BME280;64052;47.466;9.094;2023-02-20T01:12:51;96918.09;;;10.45;54.87
46456;BME280;64052;47.466;9.094;2023-02-20T01:17:52;96921.19;;;10.37;55.32
46456;BME280;64052;47.466;9.094;2023-02-20T01:22:54;96917.81;;;10.35;55.37
46456;BME280;64052;47.466;9.094;2023-02-20T01:27:55;96914.84;;;10.39;55.51
46456;BME280;64052;47.466;9.094;2023-02-20T01:32:57;96924.03;;;10.34;55.58
46456;BME280;64052;47.466;9.094;2023-02-20T01:37:59;96921.09;;;10.25;55.48
46456;BME280;64052;47.466;9.094;2023-02-20T01:43:01;96916.63;;;10.26;55.93
46456;BME280;64052;47.466;9.094;2023-02-20T01:48:04;96917.16;;;10.18;55.85
46456;BME280;64052;47.466;9.094;2023-02-20T01:53:08;96925.13;;;10.04;56.44
46456;BME280;64052;47.466;9.094;2023-02-20T01:58:14;96924.56;;;9.98;57.22
46456;BME280;64052;47.466;9.094;2023-02-20T02:03:21;96928.59;;;10.04;56.39
46456;BME280;64052;47.466;9.094;2023-02-20T02:08:24;96925.34;;;10.13;56.21
46456;BME280;64052;47.466;9.094;2023-02-20T02:13:28;96913.72;;;10.03;56.86
46456;BME280;64052;47.466;9.094;2023-02-20T02:30:11;96898.44;;;9.95;56.84
46456;BME280;64052;47.466;9.094;2023-02-20T02:40:59;96892.78;;;9.74;57.61
46456;BME280;64052;47.466;9.094;2023-02-20T02:46:24;96897.16;;;9.88;57.69
46456;BME280;64052;47.466;9.094;2023-02-20T02:51:28;96903.97;;;9.78;58.07
46456;BME280;64052;47.466;9.094;2023-02-20T02:56:34;96895.28;;;9.90;57.38
46456;BME280;64052;47.466;9.094;2023-02-20T03:01:42;96894.13;;;9.94;56.98
46456;BME280;64052;47.466;9.094;2023-02-20T03:06:45;96890.88;;;10.04;57.05
46456;BME280;64052;47.466;9.094;2023-02-20T03:11:50;96892.44;;;9.93;56.98
46456;BME280;64052;47.466;9.094;2023-02-20T03:17:04;96887.88;;;9.82;57.78
46456;BME280;64052;47.466;9.094;2023-02-20T03:22:21;96875.38;;;9.72;58.40
46456;BME280;64052;47.466;9.094;2023-02-20T03:27:26;96881.06;;;9.65;58.83
46456;BME280;64052;47.466;9.094;2023-02-20T03:32:31;96873.84;;;9.82;57.93
46456;BME280;64052;47.466;9.094;2023-02-20T03:37:35;96871.56;;;9.90;56.67
46456;BME280;64052;47.466;9.094;2023-02-20T03:42:43;96868.13;;;9.75;56.77
46456;BME280;64052;47.466;9.094;2023-02-20T03:47:59;96860.19;;;9.62;57.08
46456;BME280;64052;47.466;9.094;2023-02-20T03:53:05;96845.59;;;9.71;56.67
46456;BME280;64052;47.466;9.094;2023-02-20T03:58:09;96851.91;;;9.68;56.21
46456;BME280;64052;47.466;9.094;2023-02-20T04:03:20;96851.53;;;9.60;56.77
46456;BME280;64052;47.466;9.094;2023-02-20T04:08:32;96844.69;;;9.30;57.04
46456;BME280;64052;47.466;9.094;2023-02-20T04:13:38;96837.69;;;9.16;57.63
46456;BME280;64052;47.466;9.094;2023-02-20T04:18:41;96846.34;;;9.46;56.61
46456;BME280;64052;47.466;9.094;2023-02-20T04:23:44;96848.84;;;9.20;57.13
46456;BME280;64052;47.466;9.094;2023-02-20T04:28:49;96852.06;;;9.10;56.87
46456;BME280;64052;47.466;9.094;2023-02-20T04:33:51;96838.75;;;8.99;56.99
46456;BME280;64052;47.466;9.094;2023-02-20T04:38:55;96837.34;;;8.93;56.97
46456;BME280;64052;47.466;9.094;2023-02-20T04:44:01;96844.41;;;8.93;57.19
46456;BME280;64052;47.466;9.094;2023-02-20T04:49:03;96836.81;;;8.74;56.82
46456;BME280;64052;47.466;9.094;2023-02-20T04:54:04;96844.13;;;8.68;56.96
46456;BME280;64052;47.466;9.094;2023-02-20T04:59:06;96846.09;;;8.79;56.88
46456;BME280;64052;47.466;9.094;2023-02-20T05:04:08;96838.88;;;8.68;56.86
46456;BME280;64052;47.466;9.094;2023-02-20T05:09:09;96850.03;;;8.72;56.95
46456;BME280;64052;47.466;9.094;2023-02-20T05:14:11;96840.38;;;8.58;57.45
46456;BME280;64052;47.466;9.094;2023-02-20T05:19:13;96846.88;;;8.52;57.21
46456;BME280;64052;47.466;9.094;2023-02-20T05:24:15;96844.13;;;8.54;56.83
46456;BME280;64052;47.466;9.094;2023-02-20T05:29:17;96839.53;;;8.57;57.37
46456;BME280;64052;47.466;9.094;2023-02-20T05:34:18;96847.41;;;8.57;56.79
46456;BME280;64052;47.466;9.094;2023-02-20T05:39:20;96843.31;;;8.53;56.67
46456;BME280;64052;47.466;9.094;2023-02-20T05:44:22;96841.94;;;8.46;57.27
46456;BME280;64052;47.466;9.094;2023-02-20T05:49:25;96841.94;;;8.46;56.74
46456;BME280;64052;47.466;9.094;2023-02-20T05:54:27;96837.06;;;8.40;56.55
46456;BME280;64052;47.466;9.094;2023-02-20T05:59:28;96833.19;;;8.31;57.16
46456;BME280;64052;47.466;9.094;2023-02-20T06:04:30;96831.91;;;8.24;57.30
46456;BME280;64052;47.466;9.094;2023-02-20T06:09:32;96824.38;;;8.18;57.50
46456;BME280;64052;47.466;9.094;2023-02-20T06:14:33;96824.28;;;8.19;57.75
46456;BME280;64052;47.466;9.094;2023-02-20T06:19:35;96825.41;;;8.15;57.04
46456;BME280;64052;47.466;9.094;2023-02-20T06:24:36;96834.94;;;8.01;57.38
46456;BME280;64052;47.466;9.094;2023-02-20T06:29:38;96838.16;;;8.07;57.40
46456;BME280;64052;47.466;9.094;2023-02-20T06:34:39;96847.53;;;8.11;57.42
46456;BME280;64052;47.466;9.094;2023-02-20T06:39:41;96849.59;;;8.06;57.49
46456;BME280;64052;47.466;9.094;2023-02-20T06:44:43;96839.31;;;7.86;56.92
46456;BME280;64052;47.466;9.094;2023-02-20T06:49:44;96838.84;;;7.80;56.68
46456;BME280;64052;47.466;9.094;2023-02-20T06:54:46;96840.13;;;7.72;57.83
46456;BME280;64052;47.466;9.094;2023-02-20T06:59:47;96843.63;;;7.57;58.35
46456;BME280;64052;47.466;9.094;2023-02-20T07:04:49;96841.75;;;7.59;58.83
46456;BME280;64052;47.466;9.094;2023-02-20T07:09:52;96838.75;;;7.65;58.19
46456;BME280;64052;47.466;9.094;2023-02-20T07:14:54;96852.50;;;7.70;58.21
46456;BME280;64052;47.466;9.094;2023-02-20T07:19:55;96845.28;;;7.74;57.91
46456;BME280;64052;47.466;9.094;2023-02-20T07:24:59;96834.06;;;7.86;57.46
46456;BME280;64052;47.466;9.094;2023-02-20T07:30:01;96837.25;;;7.92;57.49
46456;BME280;64052;47.466;9.094;2023-02-20T07:35:03;96842.31;;;7.95;57.02
46456;BME280;64052;47.466;9.094;2023-02-20T07:40:11;96831.75;;;7.96;57.79
46456;BME280;64052;47.466;9.094;2023-02-20T07:45:12;96842.94;;;8.14;57.41
46456;BME280;64052;47.466;9.094;2023-02-20T07:50:15;96836.22;;;8.25;57.08
46456;BME280;64052;47.466;9.094;2023-02-20T07:55:17;96832.38;;;8.45;56.04
46456;BME280;64052;47.466;9.094;2023-02-20T08:00:20;96824.31;;;8.63;56.45
46456;BME280;64052;47.466;9.094;2023-02-20T08:05:22;96819.06;;;8.77;56.81
46456;BME280;64052;47.466;9.094;2023-02-20T08:10:25;96811.81;;;8.81;56.82
46456;BME280;64052;47.466;9.094;2023-02-20T08:15:27;96820.03;;;9.04;56.61
46456;BME280;64052;47.466;9.094;2023-02-20T08:20:28;96822.28;;;9.37;55.25
46456;BME280;64052;47.466;9.094;2023-02-20T08:25:30;96823.53;;;9.59;54.96
46456;BME280;64052;47.466;9.094;2023-02-20T08:30:31;96830.03;;;9.81;54.04
46456;BME280;64052;47.466;9.094;2023-02-20T08:35:33;96822.69;;;9.99;53.40
46456;BME280;64052;47.466;9.094;2023-02-20T08:40:35;96817.13;;;10.30;53.72
46456;BME280;64052;47.466;9.094;2023-02-20T08:45:37;96804.91;;;10.42;52.91
46456;BME280;64052;47.466;9.094;2023-02-20T08:50:38;96813.44;;;10.45;53.37
46456;BME280;64052;47.466;9.094;2023-02-20T08:55:40;96802.41;;;10.90;52.40
46456;BME280;64052;47.466;9.094;2023-02-20T09:00:42;96798.63;;;11.19;51.49
46456;BME280;64052;47.466;9.094;2023-02-20T09:05:43;96791.88;;;11.39;52.13
46456;BME280;64052;47.466;9.094;2023-02-20T09:10:45;96775.09;;;11.64;51.18
46456;BME280;64052;47.466;9.094;2023-02-20T09:15:46;96768.88;;;11.77;51.48
46456;BME280;64052;47.466;9.094;2023-02-20T09:20:48;96763.88;;;11.97;50.44
46456;BME280;64052;47.466;9.094;2023-02-20T09:25:49;96754.31;;;12.18;48.98
46456;BME280;64052;47.466;9.094;2023-02-20T09:30:51;96754.34;;;12.30;49.72
46456;BME280;64052;47.466;9.094;2023-02-20T09:35:53;96742.53;;;12.57;47.85
46456;BME280;64052;47.466;9.094;2023-02-20T09:40:57;96740.75;;;12.80;46.91
46456;BME280;64052;47.466;9.094;2023-02-20T09:51:15;96746.41;;;13.19;45.73
46456;BME280;64052;47.466;9.094;2023-02-20T09:56:20;96740.94;;;13.44;45.58
46456;BME280;64052;47.466;9.094;2023-02-20T10:01:22;96744.94;;;13.71;44.95
46456;BME280;64052;47.466;9.094;2023-02-20T10:06:27;96737.56;;;13.96;44.86
46456;BME280;64052;47.466;9.094;2023-02-20T10:22:23;96724.72;;;14.63;42.66
46456;BME280;64052;47.466;9.094;2023-02-20T10:27:51;96715.13;;;14.72;42.59
46456;BME280;64052;47.466;9.094;2023-02-20T10:38:03;96724.16;;;14.91;40.31
46456;BME280;64052;47.466;9.094;2023-02-20T10:43:26;96719.84;;;15.19;40.99
46456;BME280;64052;47.466;9.094;2023-02-20T10:48:30;96719.97;;;15.67;40.49
46456;BME280;64052;47.466;9.094;2023-02-20T10:53:54;96707.69;;;16.33;39.08
46456;BME280;64052;47.466;9.094;2023-02-20T11:00:06;96705.41;;;17.22;37.22
46456;BME280;64052;47.466;9.094;2023-02-20T11:05:04;96704.31;;;18.14;36.18
46456;BME280;64052;47.466;9.094;2023-02-20T11:10:08;96697.41;;;19.90;32.75
46456;BME280;64052;47.466;9.094;2023-02-20T11:15:24;96684.84;;;21.12;30.13
46456;BME280;64052;47.466;9.094;2023-02-20T11:25:37;96680.19;;;19.85;32.55
46456;BME280;64052;47.466;9.094;2023-02-20T11:30:43;96667.66;;;19.69;33.02
46456;BME280;64052;47.466;9.094;2023-02-20T11:35:50;96665.94;;;21.05;31.73
46456;BME280;64052;47.466;9.094;2023-02-20T11:46:07;96638.34;;;25.96;24.23
46456;BME280;64052;47.466;9.094;2023-02-20T11:56:31;96615.63;;;28.49;21.40
46456;BME280;64052;47.466;9.094;2023-02-20T12:01:34;96609.56;;;28.84;20.75
46456;BME280;64052;47.466;9.094;2023-02-20T12:06:41;96598.25;;;29.72;19.64
46456;BME280;64052;47.466;9.094;2023-02-20T12:11:42;96587.94;;;30.46;18.54
46456;BME280;64052;47.466;9.094;2023-02-20T12:17:18;96578.66;;;30.71;18.29
46456;BME280;64052;47.466;9.094;2023-02-20T12:22:36;96557.09;;;31.62;17.69
46456;BME280;64052;47.466;9.094;2023-02-20T12:38:54;96546.16;;;32.35;16.24
46456;BME280;64052;47.466;9.094;2023-02-20T12:44:23;96535.31;;;32.41;16.53
46456;BME280;64052;47.466;9.094;2023-02-20T12:55:35;96518.47;;;32.99;16.06
46456;BME280;64052;47.466;9.094;2023-02-20T13:00:40;96511.06;;;33.27;15.79
46456;BME280;64052;47.466;9.094;2023-02-20T13:05:45;96496.38;;;34.24;15.30
46456;BME280;64052;47.466;9.094;2023-02-20T13:10:58;96482.94;;;34.17;15.01
46456;BME280;64052;47.466;9.094;2023-02-20T13:16:15;96480.09;;;34.92;14.46
46456;BME280;64052;47.466;9.094;2023-02-20T13:21:24;96472.63;;;34.45;14.58
46456;BME280;64052;47.466;9.094;2023-02-20T13:36:36;96462.22;;;30.61;17.01
46456;BME280;64052;47.466;9.094;2023-02-20T13:46:59;96441.66;;;26.57;22.06
46456;BME280;64052;47.466;9.094;2023-02-20T13:52:01;96435.44;;;26.82;21.86
46456;BME280;64052;47.466;9.094;2023-02-20T13:57:15;96420.31;;;26.74;21.20
46456;BME280;64052;47.466;9.094;2023-02-20T14:02:20;96416.66;;;26.30;21.78
46456;BME280;64052;47.466;9.094;2023-02-20T14:07:49;96426.81;;;24.96;23.14
46456;BME280;64052;47.466;9.094;2023-02-20T14:12:57;96419.97;;;23.97;25.03
46456;BME280;64052;47.466;9.094;2023-02-20T14:18:01;96413.88;;;23.75;25.53
46456;BME280;64052;47.466;9.094;2023-02-20T14:23:26;96408.53;;;23.89;24.72
46456;BME280;64052;47.466;9.094;2023-02-20T14:28:30;96396.09;;;23.81;24.58
46456;BME280;64052;47.466;9.094;2023-02-20T14:33:32;96388.47;;;23.42;25.09
46456;BME280;64052;47.466;9.094;2023-02-20T14:38:41;96381.88;;;23.16;26.20
46456;BME280;64052;47.466;9.094;2023-02-20T14:43:59;96379.69;;;22.98;27.48
46456;BME280;64052;47.466;9.094;2023-02-20T14:54:21;96377.06;;;22.48;28.24
46456;BME280;64052;47.466;9.094;2023-02-20T15:04:33;96380.19;;;21.26;30.17
46456;BME280;64052;47.466;9.094;2023-02-20T15:14:41;96383.34;;;21.00;30.18
46456;BME280;64052;47.466;9.094;2023-02-20T15:19:43;96385.66;;;20.79;30.65
46456;BME280;64052;47.466;9.094;2023-02-20T15:24:45;96391.81;;;20.27;31.74
46456;BME280;64052;47.466;9.094;2023-02-20T15:29:46;96387.28;;;20.04;30.99
46456;BME280;64052;47.466;9.094;2023-02-20T15:34:55;96381.75;;;19.74;31.74
46456;BME280;64052;47.466;9.094;2023-02-20T15:40:06;96390.97;;;19.63;32.63
46456;BME280;64052;47.466;9.094;2023-02-20T15:45:13;96379.69;;;19.52;33.39
46456;BME280;64052;47.466;9.094;2023-02-20T15:50:15;96363.19;;;19.72;32.42
46456;BME280;64052;47.466;9.094;2023-02-20T15:55:18;96364.22;;;19.63;32.50
46456;BME280;64052;47.466;9.094;2023-02-20T16:00:24;96369.63;;;19.94;31.23
46456;BME280;64052;47.466;9.094;2023-02-20T16:05:26;96360.63;;;19.79;32.14
46456;BME280;64052;47.466;9.094;2023-02-20T16:10:28;96355.34;;;19.39;32.96
46456;BME280;64052;47.466;9.094;2023-02-20T16:15:29;96355.03;;;19.34;33.84
46456;BME280;64052;47.466;9.094;2023-02-20T16:20:30;96343.59;;;18.92;34.86
46456;BME280;64052;47.466;9.094;2023-02-20T16:25:32;96354.53;;;18.57;35.79
46456;BME280;64052;47.466;9.094;2023-02-20T16:30:36;96348.88;;;18.35;36.19
46456;BME280;64052;47.466;9.094;2023-02-20T16:35:38;96336.69;;;18.00;37.59
46456;BME280;64052;47.466;9.094;2023-02-20T16:40:40;96334.25;;;17.55;38.34
46456;BME280;64052;47.466;9.094;2023-02-20T16:45:41;96338.47;;;17.14;38.90
46456;BME280;64052;47.466;9.094;2023-02-20T16:50:46;96331.75;;;16.76;39.17
46456;BME280;64052;47.466;9.094;2023-02-20T16:55:49;96344.63;;;16.36;40.35
46456;BME280;64052;47.466;9.094;2023-02-20T17:00:52;96338.06;;;16.22;40.50
46456;BME280;64052;47.466;9.094;2023-02-20T17:05:58;96334.56;;;16.03;40.89
46456;BME280;64052;47.466;9.094;2023-02-20T17:11:00;96339.16;;;15.93;41.63
46456;BME280;64052;47.466;9.094;2023-02-20T17:16:01;96338.66;;;15.97;41.64
46456;BME280;64052;47.466;9.094;2023-02-20T17:21:03;96330.66;;;15.61;42.34
46456;BME280;64052;47.466;9.094;2023-02-20T17:26:07;96342.41;;;15.12;43.15
46456;BME280;64052;47.466;9.094;2023-02-20T17:31:09;96346.28;;;14.90;43.96
46456;BME280;64052;47.466;9.094;2023-02-20T17:36:10;96342.97;;;14.68;44.28
46456;BME280;64052;47.466;9.094;2023-02-20T17:41:12;96348.72;;;14.54;44.58
46456;BME280;64052;47.466;9.094;2023-02-20T17:46:18;96348.72;;;14.54;44.85
46456;BME280;64052;47.466;9.094;2023-02-20T17:51:20;96360.47;;;14.61;45.08
46456;BME280;64052;47.466;9.094;2023-02-20T17:56:21;96357.06;;;14.79;45.13
46456;BME280;64052;47.466;9.094;2023-02-20T18:01:23;96365.16;;;14.87;44.61
46456;BME280;64052;47.466;9.094;2023-02-20T18:06:24;96369.38;;;14.80;44.68
46456;BME280;64052;47.466;9.094;2023-02-20T18:11:27;96355.41;;;14.68;44.81
46456;BME280;64052;47.466;9.094;2023-02-20T18:16:28;96356.84;;;14.52;45.25
46456;BME280;64052;47.466;9.094;2023-02-20T18:21:30;96362.75;;;14.36;46.20
46456;BME280;64052;47.466;9.094;2023-02-20T18:26:32;96369.59;;;14.39;45.79
46456;BME280;64052;47.466;9.094;2023-02-20T18:31:34;96364.16;;;14.30;46.00
46456;BME280;64052;47.466;9.094;2023-02-20T18:36:35;96365.13;;;14.19;46.09
46456;BME280;64052;47.466;9.094;2023-02-20T18:41:37;96366.81;;;14.01;46.66
46456;BME280;64052;47.466;9.094;2023-02-20T18:46:38;96372.53;;;13.96;46.44
46456;BME280;64052;47.466;9.094;2023-02-20T18:51:41;96364.28;;;13.99;46.19
46456;BME280;64052;47.466;9.094;2023-02-20T18:56:45;96372.66;;;13.95;46.14
46456;BME280;64052;47.466;9.094;2023-02-20T19:01:47;96372.94;;;13.72;46.78
46456;BME280;64052;47.466;9.094;2023-02-20T19:06:49;96372.09;;;13.61;47.16
46456;BME280;64052;47.466;9.094;2023-02-20T19:11:54;96377.78;;;13.47;47.34
46456;BME280;64052;47.466;9.094;2023-02-20T19:16:59;96381.84;;;13.20;47.46
46456;BME280;64052;47.466;9.094;2023-02-20T19:22:01;96371.47;;;12.97;47.92
46456;BME280;64052;47.466;9.094;2023-02-20T19:27:02;96379.09;;;12.90;48.35
46456;BME280;64052;47.466;9.094;2023-02-20T19:32:04;96379.34;;;12.56;48.53
46456;BME280;64052;47.466;9.094;2023-02-20T19:37:05;96373.84;;;12.27;49.14
46456;BME280;64052;47.466;9.094;2023-02-20T19:42:07;96378.09;;;12.18;49.37
46456;BME280;64052;47.466;9.094;2023-02-20T19:47:08;96370.41;;;12.15;49.83
46456;BME280;64052;47.466;9.094;2023-02-20T19:52:10;96387.78;;;11.96;50.23
46456;BME280;64052;47.466;9.094;2023-02-20T19:57:12;96382.66;;;11.83;50.48
46456;BME280;64052;47.466;9.094;2023-02-20T20:02:14;96384.75;;;11.68;51.09
46456;BME280;64052;47.466;9.094;2023-02-20T20:07:15;96381.88;;;11.60;51.19
46456;BME280;64052;47.466;9.094;2023-02-20T20:12:17;96386.22;;;11.49;51.08
46456;BME280;64052;47.466;9.094;2023-02-20T20:17:18;96380.94;;;11.49;51.55
46456;BME280;64052;47.466;9.094;2023-02-20T20:22:20;96373.75;;;11.40;51.94
46456;BME280;64052;47.466;9.094;2023-02-20T20:27:22;96371.94;;;11.52;51.36
46456;BME280;64052;47.466;9.094;2023-02-20T20:32:24;96375.78;;;11.48;50.67
46456;BME280;64052;47.466;9.094;2023-02-20T20:37:26;96368.13;;;11.33;51.44
46456;BME280;64052;47.466;9.094;2023-02-20T20:42:27;96366.25;;;11.24;51.25
46456;BME280;64052;47.466;9.094;2023-02-20T20:47:29;96371.28;;;11.04;51.58
46456;BME280;64052;47.466;9.094;2023-02-20T20:52:31;96363.84;;;11.09;51.42
46456;BME280;64052;47.466;9.094;2023-02-20T20:57:33;96368.41;;;11.07;51.55
46456;BME280;64052;47.466;9.094;2023-02-20T21:02:35;96371.03;;;11.07;51.27
46456;BME280;64052;47.466;9.094;2023-02-20T21:07:37;96365.78;;;11.07;51.78
46456;BME280;64052;47.466;9.094;2023-02-20T21:12:39;96353.28;;;11.09;51.65
46456;BME280;64052;47.466;9.094;2023-02-20T21:17:42;96351.13;;;11.15;51.44
46456;BME280;64052;47.466;9.094;2023-02-20T21:22:46;96351.75;;;11.18;50.83
46456;BME280;64052;47.466;9.094;2023-02-20T21:27:48;96344.66;;;11.07;50.85
46456;BME280;64052;47.466;9.094;2023-02-20T21:32:49;96347.81;;;11.01;50.81
46456;BME280;64052;47.466;9.094;2023-02-20T21:37:51;96343.69;;;10.97;50.33
46456;BME280;64052;47.466;9.094;2023-02-20T21:42:52;96349.59;;;11.01;49.99
46456;BME280;64052;47.466;9.094;2023-02-20T21:47:54;96346.34;;;10.86;50.11
46456;BME280;64052;47.466;9.094;2023-02-20T21:52:56;96346.13;;;10.77;50.04
46456;BME280;64052;47.466;9.094;2023-02-20T21:57:57;96348.75;;;10.77;49.90
46456;BME280;64052;47.466;9.094;2023-02-20T22:02:59;96342.53;;;10.67;50.02
46456;BME280;64052;47.466;9.094;2023-02-20T22:08:00;96334.34;;;10.59;50.46
46456;BME280;64052;47.466;9.094;2023-02-20T22:13:02;96336.78;;;10.62;49.98
46456;BME280;64052;47.466;9.094;2023-02-20T22:18:03;96336.88;;;10.60;49.87
46456;BME280;64052;47.466;9.094;2023-02-20T22:23:05;96339.88;;;10.56;49.79
46456;BME280;64052;47.466;9.094;2023-02-20T22:28:06;96333.78;;;10.44;49.73
46456;BME280;64052;47.466;9.094;2023-02-20T22:33:08;96326.94;;;10.41;50.13
46456;BME280;64052;47.466;9.094;2023-02-20T22:38:09;96310.97;;;10.43;49.94
46456;BME280;64052;47.466;9.094;2023-02-20T22:43:11;96317.28;;;10.29;50.26
46456;BME280;64052;47.466;9.094;2023-02-20T22:48:12;96312.81;;;10.18;50.62
46456;BME280;64052;47.466;9.094;2023-02-20T22:53:14;96307.09;;;10.24;50.42
46456;BME280;64052;47.466;9.094;2023-02-20T22:58:15;96312.03;;;10.29;49.46
46456;BME280;64052;47.466;9.094;2023-02-20T23:03:17;96314.03;;;10.13;49.46
46456;BME280;64052;47.466;9.094;2023-02-20T23:08:19;96310.38;;;9.92;50.27
46456;BME280;64052;47.466;9.094;2023-02-20T23:13:20;96307.25;;;9.87;50.63
46456;BME280;64052;47.466;9.094;2023-02-20T23:18:22;96299.63;;;9.95;50.34
46456;BME280;64052;47.466;9.094;2023-02-20T23:23:23;96311.66;;;9.86;50.09
46456;BME280;64052;47.466;9.094;2023-02-20T23:28:25;96307.31;;;9.74;50.57
46456;BME280;64052;47.466;9.094;2023-02-20T23:33:37;96307.31;;;9.74;50.38
46456;BME280;64052;47.466;9.094;2023-02-20T23:38:41;96303.16;;;9.71;50.23
46456;BME280;64052;47.466;9.094;2023-02-20T23:43:42;96300.78;;;9.31;51.01
46456;BME280;64052;47.466;9.094;2023-02-20T23:48:44;96285.53;;;9.36;50.95
46456;BME280;64052;47.466;9.094;2023-02-20T23:53:45;96291.56;;;9.49;50.64
46456;BME280;64052;47.466;9.094;2023-02-20T23:58:47;96283.47;;;9.64;50.00
